sensor_id;sensor_type;location;lat;lon;timestamp;pressure;altitude;pressure_sealevel;temperature;humidity
19086;BME280;9675;51.538;6.728;2023-04-09T00:00:45;102205.06;;;12.65;100.00
19086;BME280;9675;51.538;6.728;2023-04-09T00:03:14;102207.88;;;12.55;100.00
19086;BME280;9675;51.538;6.728;2023-04-09T00:05:42;102211.47;;;12.57;100.00
19086;BME280;9675;51.538;6.728;2023-04-09T00:08:09;102216.94;;;12.48;100.00
19086;BME280;9675;51.538;6.728;2023-04-09T00:10:37;102214.25;;;12.47;100.00
19086;BME280;9675;51.538;6.728;2023-04-09T00:13:04;102213.69;;;12.38;100.00
19086;BME280;9675;51.538;6.728;2023-04-09T00:15:31;102208.28;;;12.34;100.00
19086;BME280;9675;51.538;6.728;2023-04-09T00:17:58;102211.47;;;12.30;100.00
19086;BME280;9675;51.538;6.728;2023-04-09T00:20:26;102214.84;;;12.29;100.00
19086;BME280;9675;51.538;6.728;2023-04-09T00:22:53;102213.47;;;12.34;100.00
19086;BME280;9675;51.538;6.728;2023-04-09T00:25:21;102209.28;;;12.23;100.00
19086;BME280;9675;51.538;6.728;2023-04-09T00:27:48;102214.06;;;12.30;100.00
19086;BME280;9675;51.538;6.728;2023-04-09T00:30:15;102213.97;;;12.29;100.00
19086;BME280;9675;51.538;6.728;2023-04-09T00:32:42;102214.66;;;12.26;100.00
19086;BME280;9675;51.538;6.728;2023-04-09T00:35:09;102216.97;;;12.22;100.00
19086;BME280;9675;51.538;6.728;2023-04-09T00:37:38;102217.63;;;12.19;100.00
19086;BME280;9675;51.538;6.728;2023-04-09T00:40:07;102216.56;;;12.16;100.00
19086;BME280;9675;51.538;6.728;2023-04-09T00:42:35;102215.47;;;12.12;100.00
19086;BME280;9675;51.538;6.728;2023-04-09T00:45:04;102215.25;;;12.09;100.00
19086;BME280;9675;51.538;6.728;2023-04-09T00:47:33;102209.91;;;12.06;100.00
19086;BME280;9675;51.538;6.728;2023-04-09T00:50:01;102213.94;;;12.03;100.00
19086;BME280;9675;51.538;6.728;2023-04-09T00:52:29;102208.59;;;12.00;100.00
19086;BME280;9675;51.538;6.728;2023-04-09T00:54:59;102207.53;;;11.96;100.00
19086;BME280;9675;51.538;6.728;2023-04-09T00:57:27;102206.69;;;11.84;100.00
19086;BME280;9675;51.538;6.728;2023-04-09T00:59:54;102214.03;;;11.78;100.00
19086;BME280;9675;51.538;6.728;2023-04-09T01:02:21;102216.16;;;11.72;100.00
19086;BME280;9675;51.538;6.728;2023-04-09T01:04:50;102208.03;;;11.66;100.00
19086;BME280;9675;51.538;6.728;2023-04-09T01:07:24;102214.06;;;11.66;100.00
19086;BME280;9675;51.538;6.728;2023-04-09T01:10:10;102211.97;;;11.61;100.00
19086;BME280;9675;51.538;6.728;2023-04-09T01:12:53;102216.94;;;11.58;100.00
19086;BME280;9675;51.538;6.728;2023-04-09T01:15:29;102206.41;;;11.55;100.00
19086;BME280;9675;51.538;6.728;2023-04-09T01:18:05;102199.78;;;11.58;100.00
19086;BME280;9675;51.538;6.728;2023-04-09T01:20:38;102204.94;;;11.58;100.00
19086;BME280;9675;51.538;6.728;2023-04-09T01:23:17;102203.91;;;11.56;100.00
19086;BME280;9675;51.538;6.728;2023-04-09T01:26:01;102203.63;;;11.51;100.00
19086;BME280;9675;51.538;6.728;2023-04-09T01:28:34;102202.41;;;11.46;100.00
19086;BME280;9675;51.538;6.728;2023-04-09T01:31:10;102197.97;;;11.44;100.00
19086;BME280;9675;51.538;6.728;2023-04-09T01:33:39;102195.25;;;11.42;100.00
19086;BME280;9675;51.538;6.728;2023-04-09T01:36:08;102205.38;;;11.39;100.00
19086;BME280;9675;51.538;6.728;2023-04-09T01:38:39;102200.00;;;11.36;100.00
19086;BME280;9675;51.538;6.728;2023-04-09T01:41:10;102204.97;;;11.33;100.00
19086;BME280;9675;51.538;6.728;2023-04-09T01:43:40;102196.09;;;11.30;100.00
19086;BME280;9675;51.538;6.728;2023-04-09T01:46:09;102204.34;;;11.24;100.00
19086;BME280;9675;51.538;6.728;2023-04-09T01:48:38;102199.84;;;11.22;100.00
19086;BME280;9675;51.538;6.728;2023-04-09T01:51:05;102194.28;;;11.16;100.00
19086;BME280;9675;51.538;6.728;2023-04-09T01:53:32;102192.94;;;11.09;100.00
19086;BME280;9675;51.538;6.728;2023-04-09T01:56:00;102199.25;;;11.13;100.00
19086;BME280;9675;51.538;6.728;2023-04-09T01:58:28;102201.50;;;11.08;100.00
19086;BME280;9675;51.538;6.728;2023-04-09T02:01:05;102194.13;;;11.01;100.00
19086;BME280;9675;51.538;6.728;2023-04-09T02:03:44;102197.94;;;10.94;100.00
19086;BME280;9675;51.538;6.728;2023-04-09T02:06:16;102194.38;;;10.92;100.00
19086;BME280;9675;51.538;6.728;2023-04-09T02:08:51;102188.09;;;10.89;100.00
19086;BME280;9675;51.538;6.728;2023-04-09T02:11:22;102180.06;;;10.84;100.00
19086;BME280;9675;51.538;6.728;2023-04-09T02:13:53;102184.31;;;10.84;100.00
19086;BME280;9675;51.538;6.728;2023-04-09T02:16:22;102178.84;;;10.79;100.00
19086;BME280;9675;51.538;6.728;2023-04-09T02:18:53;102185.59;;;10.77;100.00
19086;BME280;9675;51.538;6.728;2023-04-09T02:21:21;102179.09;;;10.71;100.00
19086;BME280;9675;51.538;6.728;2023-04-09T02:23:48;102171.97;;;10.67;100.00
19086;BME280;9675;51.538;6.728;2023-04-09T02:26:16;102174.28;;;10.63;100.00
19086;BME280;9675;51.538;6.728;2023-04-09T02:28:43;102177.56;;;10.61;100.00
19086;BME280;9675;51.538;6.728;2023-04-09T02:31:10;102167.72;;;10.55;100.00
19086;BME280;9675;51.538;6.728;2023-04-09T02:33:38;102168.50;;;10.54;100.00
19086;BME280;9675;51.538;6.728;2023-04-09T02:36:06;102173.44;;;10.51;100.00
19086;BME280;9675;51.538;6.728;2023-04-09T02:38:36;102165.72;;;10.51;100.00
19086;BME280;9675;51.538;6.728;2023-04-09T02:41:03;102165.38;;;10.47;100.00
19086;BME280;9675;51.538;6.728;2023-04-09T02:43:30;102164.50;;;10.46;100.00
19086;BME280;9675;51.538;6.728;2023-04-09T02:45:57;102168.06;;;10.48;100.00
19086;BME280;9675;51.538;6.728;2023-04-09T02:48:24;102162.72;;;10.45;100.00
19086;BME280;9675;51.538;6.728;2023-04-09T02:50:53;102162.47;;;10.42;100.00
19086;BME280;9675;51.538;6.728;2023-04-09T02:53:20;102163.06;;;10.38;100.00
19086;BME280;9675;51.538;6.728;2023-04-09T02:55:48;102156.09;;;10.37;100.00
19086;BME280;9675;51.538;6.728;2023-04-09T02:58:15;102155.13;;;10.35;100.00
19086;BME280;9675;51.538;6.728;2023-04-09T03:00:42;102157.56;;;10.34;100.00
19086;BME280;9675;51.538;6.728;2023-04-09T03:03:09;102153.91;;;10.30;100.00
19086;BME280;9675;51.538;6.728;2023-04-09T03:05:36;102158.03;;;10.28;100.00
19086;BME280;9675;51.538;6.728;2023-04-09T03:08:05;102149.97;;;10.23;100.00
19086;BME280;9675;51.538;6.728;2023-04-09T03:10:32;102150.31;;;10.16;100.00
19086;BME280;9675;51.538;6.728;2023-04-09T03:12:59;102143.81;;;10.10;100.00
19086;BME280;9675;51.538;6.728;2023-04-09T03:15:26;102144.59;;;10.09;100.00
19086;BME280;9675;51.538;6.728;2023-04-09T03:17:53;102145.50;;;10.09;100.00
19086;BME280;9675;51.538;6.728;2023-04-09T03:20:20;102143.59;;;10.07;100.00
19086;BME280;9675;51.538;6.728;2023-04-09T03:22:47;102135.75;;;10.05;100.00
19086;BME280;9675;51.538;6.728;2023-04-09T03:25:15;102149.31;;;10.03;100.00
19086;BME280;9675;51.538;6.728;2023-04-09T03:27:44;102149.09;;;10.00;100.00
19086;BME280;9675;51.538;6.728;2023-04-09T03:30:11;102147.94;;;9.96;100.00
19086;BME280;9675;51.538;6.728;2023-04-09T03:32:38;102143.50;;;9.94;100.00
19086;BME280;9675;51.538;6.728;2023-04-09T03:35:06;102143.81;;;9.87;100.00
19086;BME280;9675;51.538;6.728;2023-04-09T03:37:33;102142.78;;;9.85;100.00
19086;BME280;9675;51.538;6.728;2023-04-09T03:40:01;102142.38;;;9.78;100.00
19086;BME280;9675;51.538;6.728;2023-04-09T03:42:30;102141.47;;;9.78;100.00
19086;BME280;9675;51.538;6.728;2023-04-09T03:44:59;102140.47;;;9.76;100.00
19086;BME280;9675;51.538;6.728;2023-04-09T03:47:26;102145.28;;;9.71;100.00
19086;BME280;9675;51.538;6.728;2023-04-09T03:49:53;102144.03;;;9.66;100.00
19086;BME280;9675;51.538;6.728;2023-04-09T03:52:20;102142.81;;;9.61;100.00
19086;BME280;9675;51.538;6.728;2023-04-09T03:54:47;102147.94;;;9.61;100.00
19086;BME280;9675;51.538;6.728;2023-04-09T03:57:15;102142.34;;;9.55;100.00
19086;BME280;9675;51.538;6.728;2023-04-09T03:59:43;102145.59;;;9.53;100.00
19086;BME280;9675;51.538;6.728;2023-04-09T04:02:10;102151.25;;;9.49;100.00
19086;BME280;9675;51.538;6.728;2023-04-09T04:04:37;102143.47;;;9.47;100.00
19086;BME280;9675;51.538;6.728;2023-04-09T04:07:04;102146.81;;;9.46;100.00
19086;BME280;9675;51.538;6.728;2023-04-09T04:09:32;102139.41;;;9.39;100.00
19086;BME280;9675;51.538;6.728;2023-04-09T04:12:00;102147.88;;;9.38;100.00
19086;BME280;9675;51.538;6.728;2023-04-09T04:14:27;102149.47;;;9.36;100.00
19086;BME280;9675;51.538;6.728;2023-04-09T04:16:56;102144.97;;;9.33;100.00
19086;BME280;9675;51.538;6.728;2023-04-09T04:19:23;102147.22;;;9.29;100.00
19086;BME280;9675;51.538;6.728;2023-04-09T04:21:50;102153.03;;;9.26;100.00
19086;BME280;9675;51.538;6.728;2023-04-09T04:24:17;102152.00;;;9.24;100.00
19086;BME280;9675;51.538;6.728;2023-04-09T04:26:44;102149.22;;;9.21;100.00
19086;BME280;9675;51.538;6.728;2023-04-09T04:29:11;102151.66;;;9.20;100.00
19086;BME280;9675;51.538;6.728;2023-04-09T04:31:38;102144.72;;;9.19;100.00
19086;BME280;9675;51.538;6.728;2023-04-09T04:34:06;102145.28;;;9.15;100.00
19086;BME280;9675;51.538;6.728;2023-04-09T04:36:35;102155.56;;;9.15;100.00
19086;BME280;9675;51.538;6.728;2023-04-09T04:39:02;102145.84;;;9.11;100.00
19086;BME280;9675;51.538;6.728;2023-04-09T04:41:29;102147.38;;;9.09;100.00
19086;BME280;9675;51.538;6.728;2023-04-09T04:43:56;102143.00;;;9.08;100.00
19086;BME280;9675;51.538;6.728;2023-04-09T04:46:23;102148.69;;;9.04;100.00
19086;BME280;9675;51.538;6.728;2023-04-09T04:48:51;102150.25;;;9.02;100.00
19086;BME280;9675;51.538;6.728;2023-04-09T04:51:19;102147.59;;;9.00;100.00
19086;BME280;9675;51.538;6.728;2023-04-09T04:53:46;102139.94;;;8.90;100.00
19086;BME280;9675;51.538;6.728;2023-04-09T04:56:14;102150.31;;;8.91;100.00
19086;BME280;9675;51.538;6.728;2023-04-09T04:58:41;102154.47;;;8.89;100.00
19086;BME280;9675;51.538;6.728;2023-04-09T05:01:08;102148.44;;;8.89;100.00
19086;BME280;9675;51.538;6.728;2023-04-09T05:03:35;102157.69;;;8.87;100.00
19086;BME280;9675;51.538;6.728;2023-04-09T05:06:03;102155.78;;;8.84;100.00
19086;BME280;9675;51.538;6.728;2023-04-09T05:08:31;102152.97;;;8.81;100.00
19086;BME280;9675;51.538;6.728;2023-04-09T05:10:58;102145.94;;;8.79;100.00
19086;BME280;9675;51.538;6.728;2023-04-09T05:13:25;102153.50;;;8.77;100.00
19086;BME280;9675;51.538;6.728;2023-04-09T05:15:52;102151.72;;;8.76;100.00
19086;BME280;9675;51.538;6.728;2023-04-09T05:18:19;102151.63;;;8.75;100.00
19086;BME280;9675;51.538;6.728;2023-04-09T05:20:46;102147.88;;;8.71;100.00
19086;BME280;9675;51.538;6.728;2023-04-09T05:23:13;102147.00;;;8.71;100.00
19086;BME280;9675;51.538;6.728;2023-04-09T05:25:42;102152.03;;;8.69;100.00
19086;BME280;9675;51.538;6.728;2023-04-09T05:28:09;102159.47;;;8.66;100.00
19086;BME280;9675;51.538;6.728;2023-04-09T05:30:36;102154.13;;;8.63;100.00
19086;BME280;9675;51.538;6.728;2023-04-09T05:33:03;102157.44;;;8.62;100.00
19086;BME280;9675;51.538;6.728;2023-04-09T05:35:30;102162.38;;;8.59;100.00
19086;BME280;9675;51.538;6.728;2023-04-09T05:37:58;102157.09;;;8.58;100.00
19086;BME280;9675;51.538;6.728;2023-04-09T05:40:25;102148.38;;;8.56;100.00
19086;BME280;9675;51.538;6.728;2023-04-09T05:42:53;102150.03;;;8.55;100.00
19086;BME280;9675;51.538;6.728;2023-04-09T05:45:20;102150.84;;;8.54;100.00
19086;BME280;9675;51.538;6.728;2023-04-09T05:47:47;102150.59;;;8.51;100.00
19086;BME280;9675;51.538;6.728;2023-04-09T05:50:14;102156.47;;;8.50;100.00
19086;BME280;9675;51.538;6.728;2023-04-09T05:52:42;102153.91;;;8.50;100.00
19086;BME280;9675;51.538;6.728;2023-04-09T05:55:09;102156.38;;;8.48;100.00
19086;BME280;9675;51.538;6.728;2023-04-09T05:57:36;102153.81;;;8.48;100.00
19086;BME280;9675;51.538;6.728;2023-04-09T06:00:06;102153.91;;;8.50;100.00
19086;BME280;9675;51.538;6.728;2023-04-09T06:02:34;102146.66;;;8.44;100.00
19086;BME280;9675;51.538;6.728;2023-04-09T06:05:01;102151.78;;;8.44;100.00
19086;BME280;9675;51.538;6.728;2023-04-09T06:07:28;102149.59;;;8.49;100.00
19086;BME280;9675;51.538;6.728;2023-04-09T06:09:55;102148.56;;;8.47;100.00
19086;BME280;9675;51.538;6.728;2023-04-09T06:12:22;102150.22;;;8.46;100.00
19086;BME280;9675;51.538;6.728;2023-04-09T06:14:49;102150.22;;;8.46;100.00
19086;BME280;9675;51.538;6.728;2023-04-09T06:17:18;102157.16;;;8.47;100.00
19086;BME280;9675;51.538;6.728;2023-04-09T06:19:45;102153.47;;;8.44;100.00
19086;BME280;9675;51.538;6.728;2023-04-09T06:22:12;102158.69;;;8.45;100.00
19086;BME280;9675;51.538;6.728;2023-04-09T06:24:39;102160.25;;;8.43;100.00
19086;BME280;9675;51.538;6.728;2023-04-09T06:27:06;102147.53;;;8.45;100.00
19086;BME280;9675;51.538;6.728;2023-04-09T06:29:33;102158.47;;;8.42;100.00
19086;BME280;9675;51.538;6.728;2023-04-09T06:32:00;102165.41;;;8.43;100.00
19086;BME280;9675;51.538;6.728;2023-04-09T06:34:29;102165.63;;;8.46;100.00
19086;BME280;9675;51.538;6.728;2023-04-09T06:36:56;102158.81;;;8.47;100.00
19086;BME280;9675;51.538;6.728;2023-04-09T06:39:23;102162.41;;;8.49;100.00
19086;BME280;9675;51.538;6.728;2023-04-09T06:41:50;102165.22;;;8.52;100.00
19086;BME280;9675;51.538;6.728;2023-04-09T06:44:17;102162.78;;;8.53;100.00
19086;BME280;9675;51.538;6.728;2023-04-09T06:46:44;102169.03;;;8.57;100.00
19086;BME280;9675;51.538;6.728;2023-04-09T06:49:12;102170.97;;;8.60;100.00
19086;BME280;9675;51.538;6.728;2023-04-09T06:51:40;102168.50;;;8.61;100.00
19086;BME280;9675;51.538;6.728;2023-04-09T06:54:07;102167.09;;;8.65;100.00
19086;BME280;9675;51.538;6.728;2023-04-09T06:56:34;102163.84;;;8.67;100.00
19086;BME280;9675;51.538;6.728;2023-04-09T06:59:01;102164.09;;;8.70;100.00
19086;BME280;9675;51.538;6.728;2023-04-09T07:01:29;102173.69;;;8.73;100.00
19086;BME280;9675;51.538;6.728;2023-04-09T07:03:56;102171.34;;;8.76;100.00
19086;BME280;9675;51.538;6.728;2023-04-09T07:06:23;102169.81;;;8.78;100.00
19086;BME280;9675;51.538;6.728;2023-04-09T07:08:51;102173.41;;;8.80;100.00
19086;BME280;9675;51.538;6.728;2023-04-09T07:11:18;102176.34;;;8.84;100.00
19086;BME280;9675;51.538;6.728;2023-04-09T07:13:46;102178.34;;;8.88;100.00
19086;BME280;9675;51.538;6.728;2023-04-09T07:16:13;102180.28;;;8.91;100.00
19086;BME280;9675;51.538;6.728;2023-04-09T07:18:40;102178.84;;;8.94;100.00
19086;BME280;9675;51.538;6.728;2023-04-09T07:21:07;102179.94;;;8.98;100.00
19086;BME280;9675;51.538;6.728;2023-04-09T07:23:35;102179.31;;;9.01;100.00
19086;BME280;9675;51.538;6.728;2023-04-09T07:26:05;102184.03;;;9.06;100.00
19086;BME280;9675;51.538;6.728;2023-04-09T07:28:32;102182.56;;;9.10;100.00
19086;BME280;9675;51.538;6.728;2023-04-09T07:31:00;102186.41;;;9.15;100.00
19086;BME280;9675;51.538;6.728;2023-04-09T07:33:27;102185.84;;;9.19;100.00
19086;BME280;9675;51.538;6.728;2023-04-09T07:39:35;102190.34;;;9.33;100.00
19086;BME280;9675;51.538;6.728;2023-04-09T07:42:04;102189.84;;;9.37;100.00
19086;BME280;9675;51.538;6.728;2023-04-09T07:44:33;102187.69;;;9.43;100.00
19086;BME280;9675;51.538;6.728;2023-04-09T07:47:01;102184.69;;;9.49;100.00
19086;BME280;9675;51.538;6.728;2023-04-09T07:49:28;102183.47;;;9.55;100.00
19086;BME280;9675;51.538;6.728;2023-04-09T07:51:56;102189.09;;;9.61;100.00
19086;BME280;9675;51.538;6.728;2023-04-09T07:54:23;102181.94;;;9.69;100.00
19086;BME280;9675;51.538;6.728;2023-04-09T07:56:51;102185.09;;;9.76;100.00
19086;BME280;9675;51.538;6.728;2023-04-09T07:59:19;102185.53;;;9.82;100.00
19086;BME280;9675;51.538;6.728;2023-04-09T08:01:47;102180.16;;;9.91;100.00
19086;BME280;9675;51.538;6.728;2023-04-09T08:04:14;102185.97;;;10.00;100.00
19086;BME280;9675;51.538;6.728;2023-04-09T08:06:41;102184.88;;;10.08;100.00
19086;BME280;9675;51.538;6.728;2023-04-09T08:09:13;102188.94;;;10.16;100.00
19086;BME280;9675;51.538;6.728;2023-04-09T08:11:40;102184.34;;;10.24;100.00
19086;BME280;9675;51.538;6.728;2023-04-09T08:14:07;102174.69;;;10.33;100.00
19086;BME280;9675;51.538;6.728;2023-04-09T08:16:39;102176.16;;;10.41;100.00
19086;BME280;9675;51.538;6.728;2023-04-09T08:19:07;102174.13;;;10.49;100.00
19086;BME280;9675;51.538;6.728;2023-04-09T08:21:36;102172.28;;;10.59;100.00
19086;BME280;9675;51.538;6.728;2023-04-09T08:24:05;102173.94;;;10.71;100.00
19086;BME280;9675;51.538;6.728;2023-04-09T08:26:32;102173.81;;;10.81;100.00
19086;BME280;9675;51.538;6.728;2023-04-09T08:28:59;102172.63;;;10.89;100.00
19086;BME280;9675;51.538;6.728;2023-04-09T08:31:26;102169.00;;;10.98;100.00
19086;BME280;9675;51.538;6.728;2023-04-09T08:33:55;102162.72;;;11.06;100.00
19086;BME280;9675;51.538;6.728;2023-04-09T08:36:22;102170.28;;;11.17;100.00
19086;BME280;9675;51.538;6.728;2023-04-09T08:38:49;102168.25;;;11.24;100.00
19086;BME280;9675;51.538;6.728;2023-04-09T08:41:19;102172.41;;;11.35;100.00
19086;BME280;9675;51.538;6.728;2023-04-09T08:43:47;102172.25;;;11.45;100.00
19086;BME280;9675;51.538;6.728;2023-04-09T08:46:14;102176.25;;;11.54;96.29
19086;BME280;9675;51.538;6.728;2023-04-09T08:48:43;102176.84;;;11.63;92.12
19086;BME280;9675;51.538;6.728;2023-04-09T08:51:17;102171.75;;;11.76;91.51
19086;BME280;9675;51.538;6.728;2023-04-09T08:53:46;102176.50;;;11.83;90.16
19086;BME280;9675;51.538;6.728;2023-04-09T08:56:15;102173.75;;;11.93;89.86
19086;BME280;9675;51.538;6.728;2023-04-09T08:58:44;102174.53;;;11.92;89.12
19086;BME280;9675;51.538;6.728;2023-04-09T09:01:22;102167.00;;;12.08;85.57
19086;BME280;9675;51.538;6.728;2023-04-09T09:03:55;102169.59;;;12.21;84.83
19086;BME280;9675;51.538;6.728;2023-04-09T09:06:26;102168.59;;;12.32;85.66
19086;BME280;9675;51.538;6.728;2023-04-09T09:09:06;102164.00;;;12.42;83.75
19086;BME280;9675;51.538;6.728;2023-04-09T09:11:34;102168.16;;;12.53;84.34
19086;BME280;9675;51.538;6.728;2023-04-09T09:14:04;102167.63;;;12.58;78.05
19086;BME280;9675;51.538;6.728;2023-04-09T09:16:32;102167.31;;;12.67;75.52
19086;BME280;9675;51.538;6.728;2023-04-09T09:19:00;102163.59;;;12.76;76.52
19086;BME280;9675;51.538;6.728;2023-04-09T09:21:30;102164.09;;;12.84;75.67
19086;BME280;9675;51.538;6.728;2023-04-09T09:23:58;102157.50;;;12.89;74.65
19086;BME280;9675;51.538;6.728;2023-04-09T09:26:27;102152.09;;;12.99;75.32
19086;BME280;9675;51.538;6.728;2023-04-09T09:28:56;102142.97;;;13.06;73.69
19086;BME280;9675;51.538;6.728;2023-04-09T09:31:25;102138.41;;;13.15;72.87
19086;BME280;9675;51.538;6.728;2023-04-09T09:33:52;102132.72;;;13.21;70.76
19086;BME280;9675;51.538;6.728;2023-04-09T09:36:32;102142.81;;;13.31;68.65
19086;BME280;9675;51.538;6.728;2023-04-09T09:39:01;102127.72;;;13.38;70.60
19086;BME280;9675;51.538;6.728;2023-04-09T09:41:35;102133.63;;;13.36;69.27
19086;BME280;9675;51.538;6.728;2023-04-09T09:44:02;102130.03;;;13.34;66.67
19086;BME280;9675;51.538;6.728;2023-04-09T09:46:36;102118.78;;;13.48;65.88
19086;BME280;9675;51.538;6.728;2023-04-09T09:49:04;102126.81;;;13.52;66.23
19086;BME280;9675;51.538;6.728;2023-04-09T09:51:36;102124.53;;;13.57;66.62
19086;BME280;9675;51.538;6.728;2023-04-09T09:54:06;102131.47;;;13.58;63.44
19086;BME280;9675;51.538;6.728;2023-04-09T09:56:38;102129.44;;;13.67;62.65
19086;BME280;9675;51.538;6.728;2023-04-09T09:59:15;102120.56;;;13.78;63.30
19086;BME280;9675;51.538;6.728;2023-04-09T10:01:47;102106.38;;;13.86;63.42
19086;BME280;9675;51.538;6.728;2023-04-09T10:04:18;102111.09;;;13.93;61.73
19086;BME280;9675;51.538;6.728;2023-04-09T10:06:50;102119.19;;;13.99;60.63
19086;BME280;9675;51.538;6.728;2023-04-09T10:09:20;102117.81;;;14.06;59.94
19086;BME280;9675;51.538;6.728;2023-04-09T10:11:48;102120.03;;;14.15;60.38
19086;BME280;9675;51.538;6.728;2023-04-09T10:14:17;102112.00;;;14.25;59.90
19086;BME280;9675;51.538;6.728;2023-04-09T10:16:46;102110.78;;;14.34;60.15
19086;BME280;9675;51.538;6.728;2023-04-09T10:19:13;102110.41;;;14.43;58.99
19086;BME280;9675;51.538;6.728;2023-04-09T10:21:50;102105.72;;;14.52;58.73
19086;BME280;9675;51.538;6.728;2023-04-09T10:24:19;102109.44;;;14.57;58.62
19086;BME280;9675;51.538;6.728;2023-04-09T10:26:47;102105.25;;;14.59;57.56
19086;BME280;9675;51.538;6.728;2023-04-09T10:29:15;102111.72;;;14.67;57.91
19086;BME280;9675;51.538;6.728;2023-04-09T10:31:50;102112.22;;;14.76;57.35
19086;BME280;9675;51.538;6.728;2023-04-09T10:34:20;102103.13;;;14.84;57.82
19086;BME280;9675;51.538;6.728;2023-04-09T10:36:55;102096.63;;;14.93;58.19
19086;BME280;9675;51.538;6.728;2023-04-09T10:39:26;102101.34;;;15.00;58.20
19086;BME280;9675;51.538;6.728;2023-04-09T10:41:55;102091.28;;;15.06;57.35
19086;BME280;9675;51.538;6.728;2023-04-09T10:44:24;102093.69;;;15.19;57.68
19086;BME280;9675;51.538;6.728;2023-04-09T10:46:53;102092.53;;;15.30;56.64
19086;BME280;9675;51.538;6.728;2023-04-09T10:49:22;102087.94;;;15.42;55.66
19086;BME280;9675;51.538;6.728;2023-04-09T10:51:54;102097.19;;;15.53;53.71
19086;BME280;9675;51.538;6.728;2023-04-09T10:54:44;102095.06;;;15.62;53.54
19086;BME280;9675;51.538;6.728;2023-04-09T10:57:18;102089.50;;;15.72;54.42
19086;BME280;9675;51.538;6.728;2023-04-09T10:59:48;102087.31;;;15.82;54.45
19086;BME280;9675;51.538;6.728;2023-04-09T11:02:47;102082.56;;;15.91;54.51
19086;BME280;9675;51.538;6.728;2023-04-09T11:05:32;102071.66;;;15.98;55.08
19086;BME280;9675;51.538;6.728;2023-04-09T11:08:07;102080.56;;;16.03;54.66
19086;BME280;9675;51.538;6.728;2023-04-09T11:10:36;102081.88;;;16.12;54.85
19086;BME280;9675;51.538;6.728;2023-04-09T11:13:05;102077.06;;;16.20;53.92
19086;BME280;9675;51.538;6.728;2023-04-09T11:15:34;102074.13;;;16.32;53.92
19086;BME280;9675;51.538;6.728;2023-04-09T11:18:02;102068.53;;;16.42;54.18
19086;BME280;9675;51.538;6.728;2023-04-09T11:20:33;102061.84;;;16.47;53.14
19086;BME280;9675;51.538;6.728;2023-04-09T11:23:01;102062.22;;;16.56;53.80
19086;BME280;9675;51.538;6.728;2023-04-09T11:25:31;102060.84;;;16.63;53.18
19086;BME280;9675;51.538;6.728;2023-04-09T11:28:02;102055.75;;;16.66;52.07
19086;BME280;9675;51.538;6.728;2023-04-09T11:30:30;102052.63;;;16.73;52.55
19086;BME280;9675;51.538;6.728;2023-04-09T11:33:00;102053.97;;;16.84;52.22
19086;BME280;9675;51.538;6.728;2023-04-09T11:35:28;102057.88;;;16.93;52.09
19086;BME280;9675;51.538;6.728;2023-04-09T11:37:55;102055.56;;;17.01;51.88
19086;BME280;9675;51.538;6.728;2023-04-09T11:40:24;102043.09;;;17.13;52.12
19086;BME280;9675;51.538;6.728;2023-04-09T11:42:54;102046.06;;;17.22;51.04
19086;BME280;9675;51.538;6.728;2023-04-09T11:45:26;102050.84;;;17.32;51.28
19086;BME280;9675;51.538;6.728;2023-04-09T11:47:54;102045.97;;;17.40;51.52
19086;BME280;9675;51.538;6.728;2023-04-09T11:50:21;102052.16;;;17.43;52.32
19086;BME280;9675;51.538;6.728;2023-04-09T11:52:50;102041.13;;;17.49;50.67
19086;BME280;9675;51.538;6.728;2023-04-09T11:55:24;102036.19;;;17.57;50.87
19086;BME280;9675;51.538;6.728;2023-04-09T11:57:57;102037.44;;;17.65;50.17
19086;BME280;9675;51.538;6.728;2023-04-09T12:00:26;102027.38;;;17.74;50.72
19086;BME280;9675;51.538;6.728;2023-04-09T12:03:02;102032.84;;;17.80;50.72
19086;BME280;9675;51.538;6.728;2023-04-09T12:05:32;102028.88;;;17.90;50.80
19086;BME280;9675;51.538;6.728;2023-04-09T12:08:02;102031.81;;;17.99;50.32
19086;BME280;9675;51.538;6.728;2023-04-09T12:10:34;102044.09;;;18.01;50.92
19086;BME280;9675;51.538;6.728;2023-04-09T12:13:07;102034.75;;;18.06;51.12
19086;BME280;9675;51.538;6.728;2023-04-09T12:15:36;102031.47;;;18.12;49.72
19086;BME280;9675;51.538;6.728;2023-04-09T12:18:08;102028.94;;;18.13;48.67
19086;BME280;9675;51.538;6.728;2023-04-09T12:20:37;102031.66;;;18.16;48.56
19086;BME280;9675;51.538;6.728;2023-04-09T12:23:06;102035.38;;;18.23;48.69
19086;BME280;9675;51.538;6.728;2023-04-09T12:25:38;102041.00;;;18.34;47.84
19086;BME280;9675;51.538;6.728;2023-04-09T12:28:10;102020.47;;;18.43;48.21
19086;BME280;9675;51.538;6.728;2023-04-09T12:30:37;102018.09;;;18.49;48.61
19086;BME280;9675;51.538;6.728;2023-04-09T12:33:05;102029.59;;;18.54;48.89
19086;BME280;9675;51.538;6.728;2023-04-09T12:35:32;102025.66;;;18.65;48.10
19086;BME280;9675;51.538;6.728;2023-04-09T12:38:00;102017.19;;;18.72;47.83
19086;BME280;9675;51.538;6.728;2023-04-09T12:40:27;102026.88;;;18.75;47.08
19086;BME280;9675;51.538;6.728;2023-04-09T12:42:54;102017.31;;;18.75;46.93
19086;BME280;9675;51.538;6.728;2023-04-09T12:45:23;102023.63;;;18.82;46.56
19086;BME280;9675;51.538;6.728;2023-04-09T12:47:50;102026.28;;;18.83;46.55
19086;BME280;9675;51.538;6.728;2023-04-09T12:50:17;102036.84;;;18.86;45.45
19086;BME280;9675;51.538;6.728;2023-04-09T12:52:45;102029.22;;;18.92;45.78
19086;BME280;9675;51.538;6.728;2023-04-09T12:55:13;102034.81;;;19.03;46.11
19086;BME280;9675;51.538;6.728;2023-04-09T12:57:43;102028.16;;;19.11;46.63
19086;BME280;9675;51.538;6.728;2023-04-09T13:00:13;102029.94;;;19.14;46.03
19086;BME280;9675;51.538;6.728;2023-04-09T13:02:42;102017.78;;;19.14;45.42
19086;BME280;9675;51.538;6.728;2023-04-09T13:05:09;102020.56;;;19.19;45.67
19086;BME280;9675;51.538;6.728;2023-04-09T13:07:36;102019.09;;;19.27;45.38
19086;BME280;9675;51.538;6.728;2023-04-09T13:10:04;102012.31;;;19.33;45.24